VGEG/CGP METAR and TAF weather

Enter ICAO airport designator
Station Type Date Time Source
VGEG METAR 2023/09/28 02:00 UTC NOAA

VGEG 280200Z 23003KT 3500 HZ SCT016 BKN100 30/28 Q1006 NOSIG


Station Type Date Time Source
VGEG Decoded METAR 2023/09/28 02:00 UTC NOAA

Chittagong Patenga , Bangladesh (VGEG) 22-16N 091-49E 6M
Sep 27, 2023 - 10:00 PM EDT / 2023.09.28 0200 UTC
Wind: from the SW (230 degrees) at 3 MPH (3 KT):0
Visibility: 2 mile(s):0
Sky conditions: mostly cloudy
Weather: haze
Temperature: 86 F (30 C)
Heat index: 104.7 F (40.4 C):1
Dew Point: 82 F (28 C)
Relative Humidity: 89%
Pressure (altimeter): 29.71 in. Hg (1006 hPa)
ob: VGEG 280200Z 23003KT 3500 HZ SCT016 BKN100 30/28 Q1006 NOSIG
cycle: 2

Station Type Date Time Source
VGEG TAF 2023/09/27 18:03 UTC NOAA

TAF TAF VGEG 271700Z 2718/2824 01008KT 4000 HZ SCT016 BKN100
TEMPO 2723/2808 02008KT 2000 RA/TSRA BKN007 FEW025CB OVC090
BECMG 2809/2811 34508KT 4000 HZ SCT016 SCT100
BECMG 2817/2819 23010KT 3500 HZ SCT016 BKN100

Example: see airport list